sensor_id;sensor_type;location;lat;lon;timestamp;P1;durP1;ratioP1;P2;durP2;ratioP2
29550;SDS011;16488;52.396;10.696;2022-08-19T00:00:15;20.17;;;12.23;;
29550;SDS011;16488;52.396;10.696;2022-08-19T00:02:42;22.10;;;12.40;;
29550;SDS011;16488;52.396;10.696;2022-08-19T00:05:10;16.27;;;12.30;;
29550;SDS011;16488;52.396;10.696;2022-08-19T00:07:36;18.80;;;11.48;;
29550;SDS011;16488;52.396;10.696;2022-08-19T00:10:02;17.95;;;11.07;;
29550;SDS011;16488;52.396;10.696;2022-08-19T00:12:30;17.60;;;11.60;;
29550;SDS011;16488;52.396;10.696;2022-08-19T00:14:55;15.27;;;10.98;;
29550;SDS011;16488;52.396;10.696;2022-08-19T00:17:21;13.73;;;10.75;;
29550;SDS011;16488;52.396;10.696;2022-08-19T00:19:47;17.83;;;11.57;;
29550;SDS011;16488;52.396;10.696;2022-08-19T00:22:12;14.90;;;11.57;;
29550;SDS011;16488;52.396;10.696;2022-08-19T00:24:39;17.70;;;11.52;;
29550;SDS011;16488;52.396;10.696;2022-08-19T00:27:06;16.13;;;12.00;;
29550;SDS011;16488;52.396;10.696;2022-08-19T00:29:31;22.63;;;12.25;;
29550;SDS011;16488;52.396;10.696;2022-08-19T00:31:57;16.67;;;11.80;;
29550;SDS011;16488;52.396;10.696;2022-08-19T00:34:24;18.95;;;11.27;;
29550;SDS011;16488;52.396;10.696;2022-08-19T00:36:54;17.75;;;11.52;;
29550;SDS011;16488;52.396;10.696;2022-08-19T00:39:20;15.45;;;11.80;;
29550;SDS011;16488;52.396;10.696;2022-08-19T00:41:46;17.98;;;12.48;;
29550;SDS011;16488;52.396;10.696;2022-08-19T00:46:46;14.07;;;11.30;;
29550;SDS011;16488;52.396;10.696;2022-08-19T00:49:19;19.58;;;11.88;;
29550;SDS011;16488;52.396;10.696;2022-08-19T00:51:53;19.30;;;12.07;;
29550;SDS011;16488;52.396;10.696;2022-08-19T00:54:22;18.83;;;12.13;;
29550;SDS011;16488;52.396;10.696;2022-08-19T00:56:49;17.70;;;11.20;;
29550;SDS011;16488;52.396;10.696;2022-08-19T00:59:16;16.85;;;11.35;;
29550;SDS011;16488;52.396;10.696;2022-08-19T01:01:44;15.13;;;11.75;;
29550;SDS011;16488;52.396;10.696;2022-08-19T01:04:11;25.13;;;11.18;;
29550;SDS011;16488;52.396;10.696;2022-08-19T01:09:05;17.42;;;11.82;;
29550;SDS011;16488;52.396;10.696;2022-08-19T01:11:33;16.40;;;10.85;;
29550;SDS011;16488;52.396;10.696;2022-08-19T01:14:00;15.68;;;10.70;;
29550;SDS011;16488;52.396;10.696;2022-08-19T01:16:27;16.23;;;11.27;;
29550;SDS011;16488;52.396;10.696;2022-08-19T01:21:36;13.95;;;11.32;;
29550;SDS011;16488;52.396;10.696;2022-08-19T01:24:06;17.70;;;10.77;;
29550;SDS011;16488;52.396;10.696;2022-08-19T01:26:37;16.17;;;10.60;;
29550;SDS011;16488;52.396;10.696;2022-08-19T01:29:06;17.40;;;10.52;;
29550;SDS011;16488;52.396;10.696;2022-08-19T01:33:59;20.38;;;10.85;;
29550;SDS011;16488;52.396;10.696;2022-08-19T01:38:52;19.40;;;11.80;;
29550;SDS011;16488;52.396;10.696;2022-08-19T01:41:18;13.50;;;10.73;;
29550;SDS011;16488;52.396;10.696;2022-08-19T01:43:44;16.27;;;9.70;;
29550;SDS011;16488;52.396;10.696;2022-08-19T01:46:10;14.35;;;10.15;;
29550;SDS011;16488;52.396;10.696;2022-08-19T01:48:41;15.57;;;10.30;;
29550;SDS011;16488;52.396;10.696;2022-08-19T01:51:08;16.00;;;10.95;;
29550;SDS011;16488;52.396;10.696;2022-08-19T01:53:35;17.38;;;10.98;;
29550;SDS011;16488;52.396;10.696;2022-08-19T01:56:01;17.42;;;10.93;;
29550;SDS011;16488;52.396;10.696;2022-08-19T01:58:29;16.73;;;9.35;;
29550;SDS011;16488;52.396;10.696;2022-08-19T02:01:02;16.10;;;10.35;;
29550;SDS011;16488;52.396;10.696;2022-08-19T02:03:28;15.93;;;10.52;;
29550;SDS011;16488;52.396;10.696;2022-08-19T02:05:54;16.00;;;11.17;;
29550;SDS011;16488;52.396;10.696;2022-08-19T02:08:22;18.13;;;11.02;;
29550;SDS011;16488;52.396;10.696;2022-08-19T02:10:48;13.40;;;10.70;;
29550;SDS011;16488;52.396;10.696;2022-08-19T02:13:14;17.20;;;11.63;;
29550;SDS011;16488;52.396;10.696;2022-08-19T02:15:40;16.15;;;10.15;;
29550;SDS011;16488;52.396;10.696;2022-08-19T02:18:06;18.45;;;10.02;;
29550;SDS011;16488;52.396;10.696;2022-08-19T02:22:58;16.95;;;9.98;;
29550;SDS011;16488;52.396;10.696;2022-08-19T02:27:50;14.07;;;9.25;;
29550;SDS011;16488;52.396;10.696;2022-08-19T02:30:16;14.23;;;10.00;;
29550;SDS011;16488;52.396;10.696;2022-08-19T02:32:42;14.98;;;10.63;;
29550;SDS011;16488;52.396;10.696;2022-08-19T02:35:08;18.17;;;11.20;;
29550;SDS011;16488;52.396;10.696;2022-08-19T02:37:34;16.48;;;10.10;;
29550;SDS011;16488;52.396;10.696;2022-08-19T02:40:18;12.95;;;10.25;;
29550;SDS011;16488;52.396;10.696;2022-08-19T02:42:44;17.10;;;10.15;;
29550;SDS011;16488;52.396;10.696;2022-08-19T02:45:10;15.68;;;11.63;;
29550;SDS011;16488;52.396;10.696;2022-08-19T02:47:37;20.33;;;10.93;;
29550;SDS011;16488;52.396;10.696;2022-08-19T02:50:03;16.20;;;10.33;;
29550;SDS011;16488;52.396;10.696;2022-08-19T02:52:31;17.23;;;11.10;;
29550;SDS011;16488;52.396;10.696;2022-08-19T02:54:57;17.35;;;11.10;;
29550;SDS011;16488;52.396;10.696;2022-08-19T02:57:23;13.43;;;10.73;;
29550;SDS011;16488;52.396;10.696;2022-08-19T02:59:49;13.88;;;10.13;;
29550;SDS011;16488;52.396;10.696;2022-08-19T03:02:15;15.75;;;10.20;;
29550;SDS011;16488;52.396;10.696;2022-08-19T03:04:41;23.50;;;10.73;;
29550;SDS011;16488;52.396;10.696;2022-08-19T03:07:07;13.93;;;9.27;;
29550;SDS011;16488;52.396;10.696;2022-08-19T03:12:02;15.43;;;9.73;;
29550;SDS011;16488;52.396;10.696;2022-08-19T03:14:30;14.63;;;10.18;;
29550;SDS011;16488;52.396;10.696;2022-08-19T03:16:56;15.40;;;10.57;;
29550;SDS011;16488;52.396;10.696;2022-08-19T03:19:22;15.27;;;10.50;;
29550;SDS011;16488;52.396;10.696;2022-08-19T03:21:48;16.33;;;9.25;;
29550;SDS011;16488;52.396;10.696;2022-08-19T03:24:14;12.60;;;9.52;;
29550;SDS011;16488;52.396;10.696;2022-08-19T03:26:43;17.10;;;10.20;;
29550;SDS011;16488;52.396;10.696;2022-08-19T03:29:14;14.32;;;10.30;;
29550;SDS011;16488;52.396;10.696;2022-08-19T03:31:42;18.92;;;9.32;;
29550;SDS011;16488;52.396;10.696;2022-08-19T03:34:13;18.45;;;10.35;;
29550;SDS011;16488;52.396;10.696;2022-08-19T03:36:53;16.05;;;10.65;;
29550;SDS011;16488;52.396;10.696;2022-08-19T03:39:21;18.65;;;9.77;;
29550;SDS011;16488;52.396;10.696;2022-08-19T03:41:48;13.40;;;9.30;;
29550;SDS011;16488;52.396;10.696;2022-08-19T03:44:19;16.80;;;9.07;;
29550;SDS011;16488;52.396;10.696;2022-08-19T03:46:53;19.00;;;11.15;;
29550;SDS011;16488;52.396;10.696;2022-08-19T03:49:22;16.58;;;8.90;;
29550;SDS011;16488;52.396;10.696;2022-08-19T03:51:53;15.35;;;9.32;;
29550;SDS011;16488;52.396;10.696;2022-08-19T03:54:21;15.15;;;9.70;;
29550;SDS011;16488;52.396;10.696;2022-08-19T03:56:51;15.43;;;9.10;;
29550;SDS011;16488;52.396;10.696;2022-08-19T03:59:20;16.85;;;9.23;;
29550;SDS011;16488;52.396;10.696;2022-08-19T04:01:50;16.02;;;9.50;;
29550;SDS011;16488;52.396;10.696;2022-08-19T04:04:16;17.58;;;9.43;;
29550;SDS011;16488;52.396;10.696;2022-08-19T04:06:42;17.53;;;8.87;;
29550;SDS011;16488;52.396;10.696;2022-08-19T04:09:09;17.33;;;8.95;;
29550;SDS011;16488;52.396;10.696;2022-08-19T04:11:37;18.33;;;10.07;;
29550;SDS011;16488;52.396;10.696;2022-08-19T04:14:07;14.30;;;9.57;;
29550;SDS011;16488;52.396;10.696;2022-08-19T04:16:35;16.05;;;9.65;;
29550;SDS011;16488;52.396;10.696;2022-08-19T04:19:02;13.43;;;8.82;;
29550;SDS011;16488;52.396;10.696;2022-08-19T04:21:28;15.85;;;10.10;;
29550;SDS011;16488;52.396;10.696;2022-08-19T04:23:55;16.38;;;9.35;;
29550;SDS011;16488;52.396;10.696;2022-08-19T04:26:26;22.50;;;9.23;;
29550;SDS011;16488;52.396;10.696;2022-08-19T04:28:54;19.98;;;10.25;;
29550;SDS011;16488;52.396;10.696;2022-08-19T04:31:24;16.40;;;8.93;;
29550;SDS011;16488;52.396;10.696;2022-08-19T04:33:52;14.23;;;10.35;;
29550;SDS011;16488;52.396;10.696;2022-08-19T04:36:20;15.45;;;9.05;;
29550;SDS011;16488;52.396;10.696;2022-08-19T04:38:48;17.33;;;10.00;;
29550;SDS011;16488;52.396;10.696;2022-08-19T04:41:14;16.55;;;9.70;;
29550;SDS011;16488;52.396;10.696;2022-08-19T04:43:59;15.43;;;9.05;;
29550;SDS011;16488;52.396;10.696;2022-08-19T04:46:24;13.63;;;9.07;;
29550;SDS011;16488;52.396;10.696;2022-08-19T04:48:50;13.55;;;10.35;;
29550;SDS011;16488;52.396;10.696;2022-08-19T04:51:17;14.63;;;8.45;;
29550;SDS011;16488;52.396;10.696;2022-08-19T04:53:43;26.02;;;9.75;;
29550;SDS011;16488;52.396;10.696;2022-08-19T04:56:10;13.67;;;10.10;;
29550;SDS011;16488;52.396;10.696;2022-08-19T04:58:38;15.75;;;9.45;;
29550;SDS011;16488;52.396;10.696;2022-08-19T05:01:06;17.38;;;9.38;;
29550;SDS011;16488;52.396;10.696;2022-08-19T05:03:33;19.83;;;10.38;;
29550;SDS011;16488;52.396;10.696;2022-08-19T05:06:06;13.80;;;9.75;;
29550;SDS011;16488;52.396;10.696;2022-08-19T05:08:35;14.75;;;9.70;;
29550;SDS011;16488;52.396;10.696;2022-08-19T05:11:06;17.13;;;9.98;;
29550;SDS011;16488;52.396;10.696;2022-08-19T05:13:37;16.92;;;10.20;;
29550;SDS011;16488;52.396;10.696;2022-08-19T05:16:03;16.48;;;9.80;;
29550;SDS011;16488;52.396;10.696;2022-08-19T05:18:29;20.40;;;9.63;;
29550;SDS011;16488;52.396;10.696;2022-08-19T05:21:14;16.00;;;9.60;;
29550;SDS011;16488;52.396;10.696;2022-08-19T05:24:00;13.63;;;8.88;;
29550;SDS011;16488;52.396;10.696;2022-08-19T05:26:27;16.50;;;9.32;;
29550;SDS011;16488;52.396;10.696;2022-08-19T05:28:53;23.38;;;9.73;;
29550;SDS011;16488;52.396;10.696;2022-08-19T05:31:19;16.35;;;10.65;;
29550;SDS011;16488;52.396;10.696;2022-08-19T05:36:11;15.57;;;9.02;;
29550;SDS011;16488;52.396;10.696;2022-08-19T05:38:38;12.00;;;8.73;;
29550;SDS011;16488;52.396;10.696;2022-08-19T05:41:08;14.60;;;9.27;;
29550;SDS011;16488;52.396;10.696;2022-08-19T05:43:34;19.42;;;9.80;;
29550;SDS011;16488;52.396;10.696;2022-08-19T05:46:00;15.90;;;9.23;;
29550;SDS011;16488;52.396;10.696;2022-08-19T05:48:25;13.47;;;8.57;;
29550;SDS011;16488;52.396;10.696;2022-08-19T05:50:51;14.27;;;8.45;;
29550;SDS011;16488;52.396;10.696;2022-08-19T05:53:17;22.35;;;9.40;;
29550;SDS011;16488;52.396;10.696;2022-08-19T05:58:09;12.32;;;9.02;;
29550;SDS011;16488;52.396;10.696;2022-08-19T06:00:35;17.30;;;9.98;;
29550;SDS011;16488;52.396;10.696;2022-08-19T06:03:02;14.52;;;9.00;;
29550;SDS011;16488;52.396;10.696;2022-08-19T06:05:31;17.08;;;9.35;;
29550;SDS011;16488;52.396;10.696;2022-08-19T06:07:56;12.48;;;9.63;;
29550;SDS011;16488;52.396;10.696;2022-08-19T06:10:24;19.58;;;10.43;;
29550;SDS011;16488;52.396;10.696;2022-08-19T06:12:51;16.17;;;9.95;;
29550;SDS011;16488;52.396;10.696;2022-08-19T06:15:17;15.55;;;9.05;;
29550;SDS011;16488;52.396;10.696;2022-08-19T06:17:42;13.50;;;9.50;;
29550;SDS011;16488;52.396;10.696;2022-08-19T06:20:12;14.40;;;10.20;;
29550;SDS011;16488;52.396;10.696;2022-08-19T06:22:42;15.98;;;10.32;;
29550;SDS011;16488;52.396;10.696;2022-08-19T06:25:10;17.65;;;11.15;;
29550;SDS011;16488;52.396;10.696;2022-08-19T06:27:37;19.52;;;10.02;;
29550;SDS011;16488;52.396;10.696;2022-08-19T06:30:03;15.75;;;10.07;;
29550;SDS011;16488;52.396;10.696;2022-08-19T06:32:29;16.48;;;9.60;;
29550;SDS011;16488;52.396;10.696;2022-08-19T06:34:55;15.93;;;11.02;;
29550;SDS011;16488;52.396;10.696;2022-08-19T06:37:21;15.65;;;10.43;;
29550;SDS011;16488;52.396;10.696;2022-08-19T06:39:47;17.15;;;10.02;;
29550;SDS011;16488;52.396;10.696;2022-08-19T06:42:13;13.43;;;9.98;;
29550;SDS011;16488;52.396;10.696;2022-08-19T06:44:42;16.42;;;10.60;;
29550;SDS011;16488;52.396;10.696;2022-08-19T06:47:10;19.23;;;10.27;;
29550;SDS011;16488;52.396;10.696;2022-08-19T06:49:39;14.00;;;9.23;;
29550;SDS011;16488;52.396;10.696;2022-08-19T06:52:05;15.57;;;9.90;;
29550;SDS011;16488;52.396;10.696;2022-08-19T06:56:57;16.45;;;10.23;;
29550;SDS011;16488;52.396;10.696;2022-08-19T06:59:25;17.35;;;11.60;;
29550;SDS011;16488;52.396;10.696;2022-08-19T07:01:54;15.45;;;11.13;;
29550;SDS011;16488;52.396;10.696;2022-08-19T07:04:22;20.83;;;10.02;;
29550;SDS011;16488;52.396;10.696;2022-08-19T07:06:55;13.20;;;10.05;;
29550;SDS011;16488;52.396;10.696;2022-08-19T07:09:23;19.15;;;11.07;;
29550;SDS011;16488;52.396;10.696;2022-08-19T07:11:50;18.75;;;9.30;;
29550;SDS011;16488;52.396;10.696;2022-08-19T07:14:18;21.08;;;9.88;;
29550;SDS011;16488;52.396;10.696;2022-08-19T07:16:46;15.02;;;9.13;;
29550;SDS011;16488;52.396;10.696;2022-08-19T07:19:13;14.15;;;10.55;;
29550;SDS011;16488;52.396;10.696;2022-08-19T07:21:39;17.88;;;10.32;;
29550;SDS011;16488;52.396;10.696;2022-08-19T07:24:06;15.02;;;8.95;;
29550;SDS011;16488;52.396;10.696;2022-08-19T07:29:02;20.88;;;10.77;;
29550;SDS011;16488;52.396;10.696;2022-08-19T07:31:28;14.43;;;9.87;;
29550;SDS011;16488;52.396;10.696;2022-08-19T07:33:54;16.52;;;10.50;;
29550;SDS011;16488;52.396;10.696;2022-08-19T07:36:22;12.77;;;9.13;;
29550;SDS011;16488;52.396;10.696;2022-08-19T07:38:53;15.45;;;8.77;;
29550;SDS011;16488;52.396;10.696;2022-08-19T07:41:23;15.85;;;9.00;;
29550;SDS011;16488;52.396;10.696;2022-08-19T07:43:51;17.73;;;9.18;;
29550;SDS011;16488;52.396;10.696;2022-08-19T07:46:18;14.82;;;9.10;;
29550;SDS011;16488;52.396;10.696;2022-08-19T07:48:46;15.15;;;8.88;;
29550;SDS011;16488;52.396;10.696;2022-08-19T07:51:14;12.85;;;8.35;;
29550;SDS011;16488;52.396;10.696;2022-08-19T07:53:41;12.35;;;9.20;;
29550;SDS011;16488;52.396;10.696;2022-08-19T07:56:09;14.95;;;8.77;;
29550;SDS011;16488;52.396;10.696;2022-08-19T07:58:37;12.80;;;8.30;;
29550;SDS011;16488;52.396;10.696;2022-08-19T08:01:05;14.35;;;8.63;;
29550;SDS011;16488;52.396;10.696;2022-08-19T08:03:32;17.17;;;9.15;;
29550;SDS011;16488;52.396;10.696;2022-08-19T08:06:16;19.95;;;9.30;;
29550;SDS011;16488;52.396;10.696;2022-08-19T08:09:01;21.83;;;9.90;;
29550;SDS011;16488;52.396;10.696;2022-08-19T08:11:38;16.90;;;9.88;;
29550;SDS011;16488;52.396;10.696;2022-08-19T08:14:05;16.80;;;10.68;;
29550;SDS011;16488;52.396;10.696;2022-08-19T08:16:35;16.55;;;9.55;;
29550;SDS011;16488;52.396;10.696;2022-08-19T08:19:03;12.82;;;9.20;;
29550;SDS011;16488;52.396;10.696;2022-08-19T08:21:31;17.80;;;10.82;;
29550;SDS011;16488;52.396;10.696;2022-08-19T08:23:57;16.67;;;10.00;;
29550;SDS011;16488;52.396;10.696;2022-08-19T08:26:23;16.75;;;10.30;;
29550;SDS011;16488;52.396;10.696;2022-08-19T08:28:50;17.23;;;11.05;;
29550;SDS011;16488;52.396;10.696;2022-08-19T08:31:16;18.73;;;10.88;;
29550;SDS011;16488;52.396;10.696;2022-08-19T08:33:44;15.07;;;9.90;;
29550;SDS011;16488;52.396;10.696;2022-08-19T08:36:11;19.58;;;10.93;;
29550;SDS011;16488;52.396;10.696;2022-08-19T08:38:38;15.93;;;10.18;;
29550;SDS011;16488;52.396;10.696;2022-08-19T08:43:51;13.10;;;8.52;;
29550;SDS011;16488;52.396;10.696;2022-08-19T08:52:18;14.48;;;9.35;;
29550;SDS011;16488;52.396;10.696;2022-08-19T08:54:48;14.57;;;9.23;;
29550;SDS011;16488;52.396;10.696;2022-08-19T08:57:19;12.52;;;7.93;;
29550;SDS011;16488;52.396;10.696;2022-08-19T08:59:57;13.80;;;8.68;;
29550;SDS011;16488;52.396;10.696;2022-08-19T09:02:25;15.15;;;8.23;;
29550;SDS011;16488;52.396;10.696;2022-08-19T09:07:22;13.27;;;7.90;;
29550;SDS011;16488;52.396;10.696;2022-08-19T09:10:14;15.88;;;8.18;;
29550;SDS011;16488;52.396;10.696;2022-08-19T09:18:03;12.30;;;8.15;;
29550;SDS011;16488;52.396;10.696;2022-08-19T09:20:29;13.90;;;9.07;;
29550;SDS011;16488;52.396;10.696;2022-08-19T09:22:56;14.65;;;8.27;;
29550;SDS011;16488;52.396;10.696;2022-08-19T09:25:23;12.25;;;8.68;;
29550;SDS011;16488;52.396;10.696;2022-08-19T09:27:49;13.88;;;7.80;;
29550;SDS011;16488;52.396;10.696;2022-08-19T09:30:22;14.00;;;7.65;;
29550;SDS011;16488;52.396;10.696;2022-08-19T09:32:49;13.05;;;7.97;;
29550;SDS011;16488;52.396;10.696;2022-08-19T09:35:17;13.07;;;8.00;;
29550;SDS011;16488;52.396;10.696;2022-08-19T09:37:43;13.90;;;7.50;;
29550;SDS011;16488;52.396;10.696;2022-08-19T09:40:09;11.48;;;7.25;;
29550;SDS011;16488;52.396;10.696;2022-08-19T09:42:36;9.60;;;7.25;;
29550;SDS011;16488;52.396;10.696;2022-08-19T09:45:03;12.48;;;8.82;;
29550;SDS011;16488;52.396;10.696;2022-08-19T09:47:29;13.93;;;8.05;;
29550;SDS011;16488;52.396;10.696;2022-08-19T09:49:55;15.03;;;8.97;;
29550;SDS011;16488;52.396;10.696;2022-08-19T09:52:20;13.82;;;8.50;;
29550;SDS011;16488;52.396;10.696;2022-08-19T09:54:46;12.25;;;7.80;;
29550;SDS011;16488;52.396;10.696;2022-08-19T09:57:12;12.95;;;7.53;;
29550;SDS011;16488;52.396;10.696;2022-08-19T09:59:38;13.40;;;7.78;;
29550;SDS011;16488;52.396;10.696;2022-08-19T10:02:05;14.75;;;7.57;;
29550;SDS011;16488;52.396;10.696;2022-08-19T10:04:30;12.60;;;7.68;;
29550;SDS011;16488;52.396;10.696;2022-08-19T10:07:14;9.50;;;6.82;;
29550;SDS011;16488;52.396;10.696;2022-08-19T10:09:40;11.00;;;7.30;;
29550;SDS011;16488;52.396;10.696;2022-08-19T10:12:06;13.82;;;8.48;;
29550;SDS011;16488;52.396;10.696;2022-08-19T10:16:58;12.25;;;7.68;;
29550;SDS011;16488;52.396;10.696;2022-08-19T10:19:25;15.52;;;7.50;;
29550;SDS011;16488;52.396;10.696;2022-08-19T10:21:52;14.48;;;8.30;;
29550;SDS011;16488;52.396;10.696;2022-08-19T10:24:18;14.75;;;7.88;;
29550;SDS011;16488;52.396;10.696;2022-08-19T10:26:45;9.85;;;7.63;;
29550;SDS011;16488;52.396;10.696;2022-08-19T10:29:13;9.77;;;6.97;;
29550;SDS011;16488;52.396;10.696;2022-08-19T10:31:41;18.95;;;7.65;;
29550;SDS011;16488;52.396;10.696;2022-08-19T10:34:06;13.02;;;7.63;;
29550;SDS011;16488;52.396;10.696;2022-08-19T10:36:33;11.67;;;7.27;;
29550;SDS011;16488;52.396;10.696;2022-08-19T10:39:01;11.30;;;7.55;;
29550;SDS011;16488;52.396;10.696;2022-08-19T10:41:30;15.90;;;8.05;;
29550;SDS011;16488;52.396;10.696;2022-08-19T10:43:58;11.93;;;8.27;;
29550;SDS011;16488;52.396;10.696;2022-08-19T10:46:32;12.45;;;7.45;;
29550;SDS011;16488;52.396;10.696;2022-08-19T10:49:00;11.40;;;7.78;;
29550;SDS011;16488;52.396;10.696;2022-08-19T10:51:29;12.88;;;7.88;;
29550;SDS011;16488;52.396;10.696;2022-08-19T10:54:13;11.43;;;8.00;;
29550;SDS011;16488;52.396;10.696;2022-08-19T10:56:39;15.13;;;8.52;;
29550;SDS011;16488;52.396;10.696;2022-08-19T10:59:24;10.88;;;7.63;;
29550;SDS011;16488;52.396;10.696;2022-08-19T11:01:52;14.00;;;9.02;;
29550;SDS011;16488;52.396;10.696;2022-08-19T11:04:23;17.08;;;8.05;;
29550;SDS011;16488;52.396;10.696;2022-08-19T11:06:49;9.87;;;7.30;;
29550;SDS011;16488;52.396;10.696;2022-08-19T11:09:18;14.65;;;8.30;;
29550;SDS011;16488;52.396;10.696;2022-08-19T11:11:54;14.65;;;7.85;;
29550;SDS011;16488;52.396;10.696;2022-08-19T11:14:21;10.02;;;7.10;;
29550;SDS011;16488;52.396;10.696;2022-08-19T11:16:48;10.00;;;7.10;;
29550;SDS011;16488;52.396;10.696;2022-08-19T11:21:44;10.30;;;7.30;;
29550;SDS011;16488;52.396;10.696;2022-08-19T11:24:16;11.13;;;7.35;;
29550;SDS011;16488;52.396;10.696;2022-08-19T11:26:45;12.73;;;7.05;;
29550;SDS011;16488;52.396;10.696;2022-08-19T11:29:12;13.25;;;7.63;;
29550;SDS011;16488;52.396;10.696;2022-08-19T11:31:39;15.48;;;7.43;;
29550;SDS011;16488;52.396;10.696;2022-08-19T11:34:09;13.15;;;7.97;;
29550;SDS011;16488;52.396;10.696;2022-08-19T11:36:38;12.07;;;8.18;;
29550;SDS011;16488;52.396;10.696;2022-08-19T11:39:06;13.93;;;9.25;;
29550;SDS011;16488;52.396;10.696;2022-08-19T11:41:32;11.90;;;8.30;;
29550;SDS011;16488;52.396;10.696;2022-08-19T11:43:58;14.60;;;8.98;;
29550;SDS011;16488;52.396;10.696;2022-08-19T11:46:25;13.90;;;8.68;;
29550;SDS011;16488;52.396;10.696;2022-08-19T11:48:54;15.45;;;8.43;;
29550;SDS011;16488;52.396;10.696;2022-08-19T11:51:21;17.50;;;8.82;;
29550;SDS011;16488;52.396;10.696;2022-08-19T11:53:49;12.32;;;8.23;;
29550;SDS011;16488;52.396;10.696;2022-08-19T11:56:16;11.60;;;8.70;;
29550;SDS011;16488;52.396;10.696;2022-08-19T11:58:43;17.13;;;8.95;;
29550;SDS011;16488;52.396;10.696;2022-08-19T12:01:13;12.27;;;8.25;;
29550;SDS011;16488;52.396;10.696;2022-08-19T12:03:41;10.13;;;7.43;;
29550;SDS011;16488;52.396;10.696;2022-08-19T12:06:09;11.73;;;7.85;;
29550;SDS011;16488;52.396;10.696;2022-08-19T12:08:38;13.82;;;7.65;;
29550;SDS011;16488;52.396;10.696;2022-08-19T12:11:05;11.95;;;7.68;;
29550;SDS011;16488;52.396;10.696;2022-08-19T12:13:33;10.60;;;7.07;;
29550;SDS011;16488;52.396;10.696;2022-08-19T12:15:59;10.98;;;8.25;;
29550;SDS011;16488;52.396;10.696;2022-08-19T12:18:25;9.77;;;7.60;;
29550;SDS011;16488;52.396;10.696;2022-08-19T12:20:52;12.07;;;8.00;;
29550;SDS011;16488;52.396;10.696;2022-08-19T12:23:19;8.45;;;7.07;;
29550;SDS011;16488;52.396;10.696;2022-08-19T12:25:46;11.57;;;6.75;;
29550;SDS011;16488;52.396;10.696;2022-08-19T12:28:16;11.43;;;6.95;;
29550;SDS011;16488;52.396;10.696;2022-08-19T12:30:45;10.15;;;7.13;;
29550;SDS011;16488;52.396;10.696;2022-08-19T12:33:11;13.25;;;7.68;;
29550;SDS011;16488;52.396;10.696;2022-08-19T12:35:42;10.30;;;6.60;;
29550;SDS011;16488;52.396;10.696;2022-08-19T12:38:09;7.75;;;6.50;;
29550;SDS011;16488;52.396;10.696;2022-08-19T12:43:01;7.55;;;6.07;;
29550;SDS011;16488;52.396;10.696;2022-08-19T12:45:26;10.85;;;6.90;;
29550;SDS011;16488;52.396;10.696;2022-08-19T12:47:52;9.68;;;6.43;;
29550;SDS011;16488;52.396;10.696;2022-08-19T12:50:18;7.15;;;5.53;;
29550;SDS011;16488;52.396;10.696;2022-08-19T12:52:44;7.90;;;6.38;;
29550;SDS011;16488;52.396;10.696;2022-08-19T12:55:10;8.65;;;6.43;;
29550;SDS011;16488;52.396;10.696;2022-08-19T12:57:37;8.40;;;5.90;;
29550;SDS011;16488;52.396;10.696;2022-08-19T13:00:04;8.77;;;6.20;;
29550;SDS011;16488;52.396;10.696;2022-08-19T13:02:34;10.18;;;6.72;;
29550;SDS011;16488;52.396;10.696;2022-08-19T13:04:59;11.68;;;6.43;;
29550;SDS011;16488;52.396;10.696;2022-08-19T13:07:25;9.10;;;6.47;;
29550;SDS011;16488;52.396;10.696;2022-08-19T13:09:51;11.67;;;6.63;;
29550;SDS011;16488;52.396;10.696;2022-08-19T13:12:17;7.97;;;5.90;;
29550;SDS011;16488;52.396;10.696;2022-08-19T13:14:45;7.22;;;5.38;;
29550;SDS011;16488;52.396;10.696;2022-08-19T13:17:15;6.00;;;4.88;;
29550;SDS011;16488;52.396;10.696;2022-08-19T13:19:41;7.85;;;5.90;;
29550;SDS011;16488;52.396;10.696;2022-08-19T13:22:07;10.07;;;6.18;;
29550;SDS011;16488;52.396;10.696;2022-08-19T13:24:32;6.85;;;5.93;;
29550;SDS011;16488;52.396;10.696;2022-08-19T13:26:59;9.57;;;5.88;;
29550;SDS011;16488;52.396;10.696;2022-08-19T13:29:25;7.75;;;5.60;;
29550;SDS011;16488;52.396;10.696;2022-08-19T13:32:09;7.60;;;5.63;;
29550;SDS011;16488;52.396;10.696;2022-08-19T13:34:53;6.80;;;5.25;;
29550;SDS011;16488;52.396;10.696;2022-08-19T13:37:19;9.27;;;6.10;;
29550;SDS011;16488;52.396;10.696;2022-08-19T13:40:05;13.05;;;5.38;;
29550;SDS011;16488;52.396;10.696;2022-08-19T13:42:31;10.15;;;6.45;;
29550;SDS011;16488;52.396;10.696;2022-08-19T13:44:57;9.85;;;5.75;;
29550;SDS011;16488;52.396;10.696;2022-08-19T13:47:23;10.27;;;5.95;;
29550;SDS011;16488;52.396;10.696;2022-08-19T13:49:49;7.28;;;5.55;;
29550;SDS011;16488;52.396;10.696;2022-08-19T13:52:14;9.52;;;6.40;;
29550;SDS011;16488;52.396;10.696;2022-08-19T13:54:40;10.50;;;6.45;;
29550;SDS011;16488;52.396;10.696;2022-08-19T13:57:06;8.95;;;6.57;;
29550;SDS011;16488;52.396;10.696;2022-08-19T13:59:31;9.25;;;6.55;;
29550;SDS011;16488;52.396;10.696;2022-08-19T14:01:58;7.53;;;5.55;;
29550;SDS011;16488;52.396;10.696;2022-08-19T14:04:24;7.55;;;6.38;;
29550;SDS011;16488;52.396;10.696;2022-08-19T14:06:50;7.95;;;6.15;;
29550;SDS011;16488;52.396;10.696;2022-08-19T14:09:16;9.10;;;6.03;;
29550;SDS011;16488;52.396;10.696;2022-08-19T14:11:41;8.77;;;6.10;;
29550;SDS011;16488;52.396;10.696;2022-08-19T14:14:07;8.10;;;6.47;;
29550;SDS011;16488;52.396;10.696;2022-08-19T14:16:32;10.07;;;5.53;;
29550;SDS011;16488;52.396;10.696;2022-08-19T14:18:58;11.70;;;5.53;;
29550;SDS011;16488;52.396;10.696;2022-08-19T14:21:24;7.83;;;5.40;;
29550;SDS011;16488;52.396;10.696;2022-08-19T14:26:18;6.50;;;5.05;;
29550;SDS011;16488;52.396;10.696;2022-08-19T14:28:44;8.02;;;5.30;;
29550;SDS011;16488;52.396;10.696;2022-08-19T14:31:11;7.18;;;5.63;;
29550;SDS011;16488;52.396;10.696;2022-08-19T14:33:38;7.18;;;5.82;;
29550;SDS011;16488;52.396;10.696;2022-08-19T14:36:05;6.95;;;5.90;;
29550;SDS011;16488;52.396;10.696;2022-08-19T14:38:31;9.13;;;6.55;;
29550;SDS011;16488;52.396;10.696;2022-08-19T14:41:10;7.65;;;5.82;;
29550;SDS011;16488;52.396;10.696;2022-08-19T14:43:38;7.13;;;5.38;;
29550;SDS011;16488;52.396;10.696;2022-08-19T14:46:04;9.10;;;6.38;;
29550;SDS011;16488;52.396;10.696;2022-08-19T14:48:30;10.90;;;5.78;;
29550;SDS011;16488;52.396;10.696;2022-08-19T14:50:56;8.10;;;6.28;;
29550;SDS011;16488;52.396;10.696;2022-08-19T14:53:21;10.30;;;6.03;;
29550;SDS011;16488;52.396;10.696;2022-08-19T14:55:47;7.75;;;5.90;;
29550;SDS011;16488;52.396;10.696;2022-08-19T14:58:13;7.65;;;5.45;;
29550;SDS011;16488;52.396;10.696;2022-08-19T15:00:39;7.10;;;5.72;;
29550;SDS011;16488;52.396;10.696;2022-08-19T15:03:05;11.70;;;6.70;;
29550;SDS011;16488;52.396;10.696;2022-08-19T15:05:30;6.75;;;5.28;;
29550;SDS011;16488;52.396;10.696;2022-08-19T15:07:56;10.32;;;6.05;;
29550;SDS011;16488;52.396;10.696;2022-08-19T15:10:22;7.00;;;5.78;;
29550;SDS011;16488;52.396;10.696;2022-08-19T15:12:50;9.13;;;5.78;;
29550;SDS011;16488;52.396;10.696;2022-08-19T15:15:16;6.38;;;5.53;;
29550;SDS011;16488;52.396;10.696;2022-08-19T15:17:43;9.13;;;5.45;;